createdAt,value
2019-03-08T00:01:49.669Z,2.15
2019-03-08T00:04:31.211Z,6.30
2019-03-08T00:07:12.713Z,0.78
2019-03-08T00:09:52.432Z,6.87
2019-03-08T00:12:41.251Z,4.35
2019-03-08T00:15:29.820Z,5.37
2019-03-08T00:18:18.496Z,4.15
2019-03-08T00:21:07.133Z,3.45
2019-03-08T00:23:57.467Z,3.08
2019-03-08T00:27:01.871Z,2.42
2019-03-08T00:29:38.244Z,2.02
2019-03-08T00:32:27.258Z,1.98
2019-03-08T00:35:16.377Z,3.10
2019-03-08T00:38:05.547Z,4.92
2019-03-08T00:40:54.210Z,2.85
2019-03-08T00:43:43.157Z,2.80
2019-03-08T00:46:31.802Z,3.67
2019-03-08T00:49:20.418Z,5.47
2019-03-08T00:52:01.694Z,2.02
2019-03-08T00:54:43.496Z,3.17
2019-03-08T00:57:24.928Z,5.37
2019-03-08T01:00:06.386Z,1.67
2019-03-08T01:02:47.508Z,1.60
2019-03-08T01:05:30.159Z,2.02
2019-03-08T01:08:11.602Z,3.42
2019-03-08T01:10:52.888Z,1.87
2019-03-08T01:13:33.625Z,3.58
2019-03-08T01:16:15.250Z,3.65
2019-03-08T01:18:56.157Z,4.10
2019-03-08T01:21:35.851Z,4.90
2019-03-08T01:24:24.483Z,3.27
2019-03-08T01:27:13.371Z,4.62
2019-03-08T01:30:02.096Z,2.27
2019-03-08T01:32:50.807Z,1.57
2019-03-08T01:38:38.822Z,3.65
2019-03-08T01:41:27.731Z,1.35
2019-03-08T01:44:16.649Z,7.17
2019-03-08T01:50:04.423Z,6.72
2019-03-08T01:52:45.593Z,5.70
2019-03-08T01:55:27.473Z,2.15
2019-03-08T01:58:08.682Z,1.55
2019-03-08T02:00:49.636Z,7.45
2019-03-08T02:03:31.433Z,4.17
2019-03-08T02:06:12.956Z,2.05
2019-03-08T02:08:55.694Z,2.35
2019-03-08T02:11:36.830Z,3.30
2019-03-08T02:14:18.597Z,2.90
2019-03-08T02:16:59.735Z,2.08
2019-03-08T02:19:40.923Z,0.80
2019-03-08T02:22:23.635Z,2.08
2019-03-08T02:25:05.261Z,2.83
2019-03-08T02:27:46.473Z,1.70
2019-03-08T02:30:27.664Z,2.75
2019-03-08T02:33:08.781Z,2.60
2019-03-08T02:35:49.999Z,3.08
2019-03-08T02:38:30.768Z,1.60
2019-03-08T02:41:11.826Z,3.12
2019-03-08T02:43:52.980Z,4.17
2019-03-08T02:46:33.975Z,3.92
2019-03-08T02:49:15.277Z,3.85
2019-03-08T02:51:56.432Z,4.92
2019-03-08T02:54:37.852Z,3.10
2019-03-08T02:57:19.142Z,3.85
2019-03-08T03:00:00.319Z,3.20
2019-03-08T03:02:41.623Z,2.98
2019-03-08T03:05:23.251Z,3.55
2019-03-08T03:08:04.915Z,2.85
2019-03-08T03:10:44.926Z,2.30
2019-03-08T03:13:33.530Z,3.98
2019-03-08T03:16:23.994Z,4.70
2019-03-08T03:19:13.408Z,2.45
2019-03-08T03:22:02.103Z,7.28
2019-03-08T03:24:51.115Z,8.05
2019-03-08T03:27:39.706Z,4.33
2019-03-08T03:33:23.616Z,5.45
2019-03-08T03:36:12.364Z,5.78
2019-03-08T03:39:00.989Z,6.03
2019-03-08T03:41:49.645Z,3.50
2019-03-08T03:44:38.863Z,7.92
2019-03-08T03:47:27.578Z,6.37
2019-03-08T03:50:18.459Z,3.50
2019-03-08T03:52:58.124Z,4.67
2019-03-08T03:58:54.552Z,2.85
2019-03-08T04:04:54.863Z,3.10
2019-03-08T04:07:43.435Z,4.53
2019-03-08T04:10:43.865Z,5.80
2019-03-08T04:13:22.706Z,4.22
2019-03-08T04:16:11.324Z,4.25
2019-03-08T04:25:05.091Z,5.95
2019-03-08T04:27:53.681Z,7.87
2019-03-08T04:30:46.342Z,6.72
2019-03-08T04:33:35.071Z,5.65
2019-03-08T04:36:25.608Z,4.70
2019-03-08T04:39:15.022Z,8.55
2019-03-08T04:42:03.780Z,7.33
2019-03-08T04:44:52.376Z,8.48
2019-03-08T04:47:41.520Z,6.78
2019-03-08T04:50:30.088Z,6.17
2019-03-08T04:53:10.948Z,7.95
2019-03-08T04:55:52.671Z,6.90
2019-03-08T04:58:33.879Z,8.83
2019-03-08T05:01:15.372Z,6.25
2019-03-08T05:03:55.038Z,10.68
2019-03-08T05:06:43.933Z,6.03
2019-03-08T05:09:34.718Z,7.87
2019-03-08T05:12:23.597Z,11.12
2019-03-08T05:18:22.954Z,5.08
2019-03-08T05:21:01.917Z,7.72
2019-03-08T05:23:50.557Z,6.45
2019-03-08T05:26:39.103Z,5.30
2019-03-08T05:29:28.071Z,9.45
2019-03-08T05:32:30.855Z,11.65
2019-03-08T05:35:07.182Z,9.28
2019-03-08T05:37:55.981Z,6.20
2019-03-08T05:40:58.862Z,9.65
2019-03-08T05:43:35.208Z,9.05
2019-03-08T05:49:22.971Z,12.43
2019-03-08T05:52:04.024Z,8.88
2019-03-08T05:54:44.992Z,12.63
2019-03-08T05:57:28.658Z,8.50
2019-03-08T06:00:10.277Z,8.43
2019-03-08T06:02:51.869Z,15.08
2019-03-08T06:05:33.189Z,14.15
2019-03-08T06:08:14.746Z,12.15
2019-03-08T06:10:55.523Z,16.70
2019-03-08T06:13:36.570Z,12.28
2019-03-08T06:16:17.894Z,11.08
2019-03-08T06:19:00.012Z,14.28
2019-03-08T06:21:41.463Z,9.78
2019-03-08T06:24:22.923Z,11.10
2019-03-08T06:27:02.957Z,11.85
2019-03-08T06:35:56.502Z,10.38
2019-03-08T06:38:45.445Z,19.80
2019-03-08T06:41:34.033Z,10.82
2019-03-08T06:44:34.422Z,16.45
2019-03-08T06:47:12.977Z,13.80
2019-03-08T06:52:50.076Z,15.78
2019-03-08T06:55:31.844Z,13.40
2019-03-08T06:58:15.848Z,17.27
2019-03-08T07:04:10.347Z,15.25
2019-03-08T07:06:51.033Z,17.95
2019-03-08T07:09:32.117Z,13.60
2019-03-08T07:12:13.699Z,13.70
2019-03-08T07:14:55.427Z,19.55
2019-03-08T07:17:36.534Z,16.35
2019-03-08T07:23:28.232Z,12.70
2019-03-08T07:26:18.826Z,13.00
2019-03-08T07:29:22.031Z,16.27
2019-03-08T07:32:24.843Z,17.05
2019-03-08T07:35:25.173Z,15.53
2019-03-08T07:38:40.125Z,19.40
2019-03-08T07:41:30.668Z,13.58
2019-03-08T07:44:36.623Z,16.73
2019-03-08T07:50:40.484Z,14.65
2019-03-08T07:53:27.135Z,17.30
2019-03-08T07:56:30.331Z,15.30
2019-03-08T07:59:37.046Z,16.70
2019-03-08T08:02:38.590Z,15.65
2019-03-08T08:05:39.044Z,15.55
2019-03-08T08:08:27.605Z,13.18
2019-03-08T08:11:35.133Z,17.92
2019-03-08T08:14:42.883Z,13.10
2019-03-08T08:17:50.393Z,15.68
2019-03-08T08:20:45.968Z,23.18
2019-03-08T08:27:03.791Z,19.55
2019-03-08T08:30:11.485Z,15.58
2019-03-08T08:33:18.999Z,14.90
2019-03-08T08:36:29.529Z,9.03
2019-03-08T08:42:55.851Z,20.77
2019-03-08T08:45:54.292Z,17.55
2019-03-08T08:49:15.664Z,17.07
2019-03-08T08:52:06.008Z,14.33
2019-03-08T08:55:18.572Z,20.25
2019-03-08T08:58:13.819Z,21.57
2019-03-08T09:01:18.381Z,18.77
2019-03-08T09:04:24.707Z,22.37
2019-03-08T09:07:32.183Z,17.50
2019-03-08T09:10:39.716Z,20.72
2019-03-08T09:13:47.182Z,19.05
2019-03-08T09:16:54.952Z,12.07
2019-03-08T09:20:02.464Z,17.07
2019-03-08T09:23:10.095Z,27.40
2019-03-08T09:26:17.596Z,11.10
2019-03-08T09:29:25.348Z,14.75
2019-03-08T09:32:32.816Z,17.50
2019-03-08T09:35:40.297Z,14.68
2019-03-08T09:38:47.886Z,17.32
2019-03-08T09:41:55.420Z,13.03
2019-03-08T09:45:02.932Z,13.75
2019-03-08T09:48:10.404Z,19.60
2019-03-08T09:51:18.146Z,19.15
2019-03-08T09:54:05.234Z,22.73
2019-03-08T09:57:05.896Z,21.50
2019-03-08T10:03:26.745Z,11.75
2019-03-08T10:06:30.216Z,13.65
2019-03-08T10:09:31.465Z,7.15
2019-03-08T10:12:34.711Z,8.28
2019-03-08T10:15:34.821Z,8.73
2019-03-08T10:18:41.120Z,12.37
2019-03-08T10:21:44.372Z,12.25
2019-03-08T10:24:42.959Z,9.55
2019-03-08T10:27:52.090Z,9.40
2019-03-08T10:30:59.550Z,7.37
2019-03-08T10:34:07.045Z,10.63
2019-03-08T10:37:14.493Z,12.23
2019-03-08T10:40:22.031Z,12.93
2019-03-08T10:43:29.523Z,15.28
2019-03-08T10:46:37.033Z,11.95
2019-03-08T10:49:44.503Z,12.10
2019-03-08T10:52:52.016Z,9.40
2019-03-08T10:55:44.206Z,11.03
2019-03-08T11:01:45.015Z,11.45
2019-03-08T11:07:47.490Z,9.50
2019-03-08T11:10:53.376Z,10.65
2019-03-08T11:13:43.720Z,9.18
2019-03-08T11:16:44.068Z,9.65
2019-03-08T11:19:54.624Z,13.93
2019-03-08T11:22:50.421Z,13.70
2019-03-08T11:28:52.605Z,11.65
2019-03-08T11:31:42.025Z,7.65
2019-03-08T11:34:41.663Z,8.83
2019-03-08T11:37:47.421Z,11.60
2019-03-08T11:41:05.745Z,6.40
2019-03-08T11:43:47.022Z,11.50
2019-03-08T11:46:47.077Z,5.20
2019-03-08T11:49:40.188Z,7.20
2019-03-08T11:52:47.891Z,16.48
2019-03-08T11:55:57.433Z,9.50
2019-03-08T11:58:44.130Z,12.53
2019-03-08T12:01:47.317Z,16.62
2019-03-08T12:04:58.677Z,7.75
2019-03-08T12:07:35.755Z,5.75
2019-03-08T12:10:37.457Z,12.95
2019-03-08T12:13:37.680Z,10.93
2019-03-08T12:16:43.938Z,10.08
2019-03-08T12:19:48.181Z,6.47
2019-03-08T12:22:45.537Z,7.90
2019-03-08T12:25:45.346Z,8.55
2019-03-08T12:28:48.746Z,7.87
2019-03-08T12:31:48.328Z,7.30
2019-03-08T12:34:41.104Z,7.42
2019-03-08T12:37:41.648Z,4.90
2019-03-08T12:40:42.088Z,7.55
2019-03-08T12:47:05.883Z,6.67
2019-03-08T12:49:46.532Z,6.30
2019-03-08T12:52:48.519Z,11.30
2019-03-08T12:55:54.168Z,5.72
2019-03-08T13:01:37.728Z,6.80
2019-03-08T13:07:57.923Z,8.23
2019-03-08T13:10:40.444Z,7.42
2019-03-08T13:13:22.099Z,12.18
2019-03-08T13:16:03.390Z,12.25
2019-03-08T13:18:44.954Z,11.45
2019-03-08T13:21:26.598Z,11.38
2019-03-08T13:24:07.803Z,13.18
2019-03-08T13:26:49.215Z,5.20
2019-03-08T13:29:30.532Z,7.30
2019-03-08T13:32:12.219Z,6.58
2019-03-08T13:34:53.707Z,8.48
2019-03-08T13:37:34.883Z,4.00
2019-03-08T13:40:15.730Z,5.97
2019-03-08T13:42:57.031Z,8.68
2019-03-08T13:45:36.863Z,9.23
2019-03-08T13:48:25.480Z,8.10
2019-03-08T14:00:04.513Z,8.48
2019-03-08T14:02:53.206Z,8.08
2019-03-08T14:05:43.470Z,5.53
2019-03-08T14:08:32.536Z,10.55
2019-03-08T14:11:21.462Z,7.17
2019-03-08T14:14:10.408Z,7.42
2019-03-08T14:22:50.093Z,7.08
2019-03-08T14:25:38.952Z,8.15
2019-03-08T14:28:27.595Z,11.15
2019-03-08T14:34:32.716Z,8.98
2019-03-08T14:37:21.398Z,10.53
2019-03-08T14:40:29.172Z,11.12
2019-03-08T14:43:36.662Z,10.82
2019-03-08T14:46:44.194Z,9.35
2019-03-08T14:49:32.777Z,6.42
2019-03-08T14:55:22.771Z,6.12
2019-03-08T14:58:11.162Z,8.43
2019-03-08T15:01:02.219Z,13.40
2019-03-08T15:04:04.407Z,10.43
2019-03-08T15:06:54.633Z,8.13
2019-03-08T15:09:31.575Z,6.97
2019-03-08T15:15:29.834Z,10.20
2019-03-08T15:21:27.904Z,10.10
2019-03-08T15:24:18.574Z,8.80
2019-03-08T15:27:07.212Z,12.15
2019-03-08T15:33:05.517Z,10.88
2019-03-08T15:35:54.100Z,12.88
2019-03-08T15:38:42.712Z,9.33
2019-03-08T15:41:31.320Z,8.08
2019-03-08T15:47:23.295Z,13.88
2019-03-08T15:50:18.199Z,10.58
2019-03-08T15:52:56.750Z,13.38
2019-03-08T15:55:57.497Z,11.57
2019-03-08T16:01:45.735Z,16.90
2019-03-08T16:04:34.462Z,12.95
2019-03-08T16:10:23.846Z,11.73
2019-03-08T16:13:12.508Z,9.68
2019-03-08T16:16:01.356Z,9.70
2019-03-08T16:19:04.640Z,17.15
2019-03-08T16:21:40.675Z,14.55
2019-03-08T16:24:31.283Z,16.30
2019-03-08T16:27:12.503Z,14.05
2019-03-08T16:29:53.775Z,13.70
2019-03-08T16:32:57.222Z,17.50
2019-03-08T16:36:02.039Z,11.60
2019-03-08T16:39:02.343Z,11.80
2019-03-08T16:42:02.771Z,13.93
2019-03-08T16:45:03.132Z,7.47
2019-03-08T16:48:03.562Z,10.68
2019-03-08T16:51:03.975Z,12.40
2019-03-08T16:53:59.506Z,10.38
2019-03-08T16:56:59.885Z,8.18
2019-03-08T17:00:00.348Z,10.00
2019-03-08T17:02:46.818Z,10.48
2019-03-08T17:05:42.587Z,17.05
2019-03-08T17:08:51.710Z,11.25
2019-03-08T17:12:05.060Z,11.18
2019-03-08T17:15:00.460Z,17.75
2019-03-08T17:18:07.953Z,15.20
2019-03-08T17:21:15.924Z,15.32
2019-03-08T17:24:19.945Z,17.87
2019-03-08T17:30:31.738Z,9.70
2019-03-08T17:33:21.609Z,9.53
2019-03-08T17:36:20.840Z,14.60
2019-03-08T17:39:10.122Z,7.70
2019-03-08T17:42:17.060Z,9.65
2019-03-08T17:45:16.962Z,8.48
2019-03-08T17:48:20.232Z,14.20
2019-03-08T17:51:33.535Z,9.25
2019-03-08T17:54:21.690Z,11.63
2019-03-08T17:57:12.796Z,13.08
2019-03-08T18:00:12.731Z,11.60
2019-03-08T18:03:12.513Z,8.85
2019-03-08T18:06:12.559Z,13.48
2019-03-08T18:09:12.609Z,11.33
2019-03-08T18:12:02.788Z,8.30
2019-03-08T18:15:02.859Z,8.93
2019-03-08T18:18:03.026Z,6.35
2019-03-08T18:20:53.667Z,7.33
2019-03-08T18:23:59.914Z,13.80
2019-03-08T18:30:09.873Z,13.68
2019-03-08T18:33:10.568Z,8.53
2019-03-08T18:42:28.516Z,10.72
2019-03-08T18:45:28.369Z,8.00
2019-03-08T18:51:26.688Z,6.90
2019-03-08T18:54:27.136Z,5.75
2019-03-08T19:00:35.409Z,10.48
2019-03-08T19:03:42.870Z,9.05
2019-03-08T19:06:50.393Z,5.92
2019-03-08T19:09:58.978Z,7.53
2019-03-08T19:12:56.568Z,5.80
2019-03-08T19:16:04.083Z,7.40
2019-03-08T19:19:11.567Z,10.18
2019-03-08T19:22:26.126Z,5.83
2019-03-08T19:25:18.710Z,5.05
2019-03-08T19:28:18.322Z,6.03
2019-03-08T19:31:05.447Z,7.60
2019-03-08T19:34:05.517Z,6.53
2019-03-08T19:37:05.860Z,5.45
2019-03-08T19:39:57.557Z,5.53
2019-03-08T19:42:56.235Z,5.20
2019-03-08T19:46:03.692Z,6.33
2019-03-08T19:49:11.342Z,6.65
2019-03-08T19:52:18.868Z,5.60
2019-03-08T19:55:15.118Z,4.58
2019-03-08T19:58:22.713Z,6.78
2019-03-08T20:01:30.160Z,5.55
2019-03-08T20:04:37.968Z,4.55
2019-03-08T20:07:45.479Z,9.80
2019-03-08T20:10:53.178Z,7.10
2019-03-08T20:17:19.525Z,3.72
2019-03-08T20:23:55.607Z,6.62
2019-03-08T20:27:03.065Z,8.00
2019-03-08T20:29:59.741Z,6.00
2019-03-08T20:32:49.891Z,8.00
2019-03-08T20:35:47.527Z,5.28
2019-03-08T20:38:47.525Z,4.70
2019-03-08T20:41:54.116Z,5.65
2019-03-08T20:44:55.621Z,4.55
2019-03-08T20:47:37.700Z,4.00
2019-03-08T20:50:18.756Z,5.08
2019-03-08T20:53:00.137Z,5.55
2019-03-08T20:55:41.416Z,4.00
2019-03-08T20:58:22.567Z,5.15
2019-03-08T21:01:04.206Z,5.53
2019-03-08T21:03:45.849Z,7.58
2019-03-08T21:06:27.367Z,4.95
2019-03-08T21:09:08.348Z,14.55
2019-03-08T21:11:50.153Z,6.67
2019-03-08T21:14:31.482Z,5.50
2019-03-08T21:17:13.050Z,6.95
2019-03-08T21:19:54.325Z,10.15
2019-03-08T21:22:35.796Z,6.28
2019-03-08T21:25:17.150Z,5.55
2019-03-08T21:27:57.868Z,10.28
2019-03-08T21:30:38.683Z,6.10
2019-03-08T21:33:20.348Z,7.67
2019-03-08T21:36:02.130Z,6.85
2019-03-08T21:38:43.429Z,8.83
2019-03-08T21:41:24.901Z,9.55
2019-03-08T21:44:06.497Z,7.12
2019-03-08T21:46:47.996Z,9.13
2019-03-08T21:49:29.503Z,9.10
2019-03-08T21:52:11.037Z,9.25
2019-03-08T21:54:52.641Z,6.75
2019-03-08T21:57:33.358Z,8.68
2019-03-08T22:00:14.157Z,6.55
2019-03-08T22:03:03.314Z,9.08
2019-03-08T22:05:51.899Z,10.15
2019-03-08T22:11:46.690Z,9.43
2019-03-08T22:17:30.875Z,9.90
2019-03-08T22:20:12.350Z,7.45
2019-03-08T22:22:53.970Z,8.70
2019-03-08T22:25:35.296Z,8.00
2019-03-08T22:28:16.654Z,11.97
2019-03-08T22:30:58.217Z,8.50
2019-03-08T22:33:39.724Z,13.58
2019-03-08T22:36:21.219Z,6.22
2019-03-08T22:39:02.706Z,6.35
2019-03-08T22:41:43.965Z,6.75
2019-03-08T22:44:25.669Z,11.28
2019-03-08T22:47:06.779Z,10.72
2019-03-08T22:49:48.463Z,11.53
2019-03-08T22:52:29.742Z,6.87
2019-03-08T22:55:11.142Z,9.00
2019-03-08T22:57:52.831Z,13.72
2019-03-08T23:00:52.913Z,7.65
2019-03-08T23:03:34.419Z,8.43
2019-03-08T23:06:16.095Z,5.87
2019-03-08T23:08:57.267Z,8.43
2019-03-08T23:11:38.778Z,15.95
2019-03-08T23:14:20.443Z,4.12
2019-03-08T23:17:02.094Z,7.25
2019-03-08T23:19:43.618Z,7.22
2019-03-08T23:22:25.535Z,7.67
2019-03-08T23:25:07.131Z,11.40
2019-03-08T23:27:52.995Z,10.58
2019-03-08T23:30:34.543Z,6.45
2019-03-08T23:33:15.894Z,7.67
2019-03-08T23:35:57.400Z,6.15
2019-03-08T23:38:37.013Z,7.90
2019-03-08T23:41:27.099Z,12.65
2019-03-08T23:44:08.136Z,4.83
2019-03-08T23:46:48.936Z,9.80
2019-03-08T23:49:30.114Z,6.85
2019-03-08T23:52:11.718Z,8.88
2019-03-08T23:54:53.265Z,6.87
2019-03-08T23:57:34.079Z,5.53
